Swanlake, Idaho
Current Conditions -  °F | °C
As of 3:51 PM on Monday 24 Nov 2014 (Local Time) from KLGU Reporting Station
Few Clouds Few Clouds  
Wind Chill: 34°   Ceiling: Unl
Heat Index: 40°   Visibility: 10mi
Dew Point: 19°   Wind: 8mph
Humidity: 43%   Direction: 350°N
Pressure: 30.37"   Gusts: NA
Location:  42.31°N, 112.01°W
Report Text: KLGU 242251Z AUTO 35007KT 10SM FEW049 04/M07 A3037 RMK AO2 SLP291 T00441072
Loading
Personal Weather Stations






























Interactive Weather Map New forecast layout! Learn more

10-Day Weather Forecast

Advertisements
Track Severe Weather on mobile